Time,TemperatureF,DewpointF,PressureIn,WindDirection,WindDirectionDegrees,WindSpeedMPH,WindSpeedGustMPH,Humidity,HourlyPrecipIn,Conditions,Clouds,dailyrainin,SoftwareType,DateUTC
2013-04-19 00:08:00,73.6,60.2,29.60,ESE,112,4.7,-999.0,63,-99.99,,,0.00,Acu-Link.com,2013-04-19 04:08:00,
2013-04-19 00:23:00,73.6,60.2,29.61,SSW,202,3.7,-999.0,63,-99.99,,,0.00,Acu-Link.com,2013-04-19 04:23:00,
2013-04-19 00:38:00,73.4,60.5,29.60,ESE,112,4.7,-999.0,64,-99.99,,,0.00,Acu-Link.com,2013-04-19 04:38:00,
2013-04-19 00:54:00,73.0,61.0,29.59,NNW,337,4.2,-999.0,66,-99.99,,,0.00,Acu-Link.com,2013-04-19 04:54:00,
2013-04-19 01:09:00,73.0,61.0,29.58,South,180,3.2,-999.0,66,-99.99,,,0.00,Acu-Link.com,2013-04-19 05:09:00,
2013-04-19 01:24:00,72.9,61.3,29.57,SSW,202,7.8,-999.0,67,-99.99,,,0.00,Acu-Link.com,2013-04-19 05:24:00,
2013-04-19 01:39:00,72.9,61.7,29.55,WSW,247,4.2,-999.0,68,-99.99,,,0.00,Acu-Link.com,2013-04-19 05:39:00,
2013-04-19 01:54:00,72.9,62.1,29.55,ESE,112,5.8,-999.0,69,-99.99,,,0.00,Acu-Link.com,2013-04-19 05:54:00,
2013-04-19 02:09:00,72.7,62.3,29.54,SSW,202,1.7,-999.0,70,-99.99,,,0.00,Acu-Link.com,2013-04-19 06:09:00,
2013-04-19 02:25:00,72.7,62.7,29.55,SSE,157,3.2,-999.0,71,-99.99,,,0.00,Acu-Link.com,2013-04-19 06:25:00,
2013-04-19 02:40:00,72.5,62.9,29.53,NW,315,3.2,-999.0,72,-99.99,,,0.00,Acu-Link.com,2013-04-19 06:40:00,
2013-04-19 02:55:00,72.5,62.9,29.53,ESE,112,2.7,-999.0,72,-99.99,,,0.00,Acu-Link.com,2013-04-19 06:55:00,
2013-04-19 03:10:00,72.5,63.3,29.51,West,270,4.2,-999.0,73,-99.99,,,0.00,Acu-Link.com,2013-04-19 07:10:00,
2013-04-19 03:26:00,72.3,63.5,29.52,South,180,3.2,-999.0,74,-99.99,,,0.00,Acu-Link.com,2013-04-19 07:26:00,
2013-04-19 03:41:00,72.3,63.9,29.52,NW,315,5.3,-999.0,75,-99.99,,,0.00,Acu-Link.com,2013-04-19 07:41:00,
2013-04-19 03:56:00,72.3,63.9,29.51,South,180,5.3,-999.0,75,-99.99,,,0.00,Acu-Link.com,2013-04-19 07:56:00,
2013-04-19 04:11:00,72.1,63.7,29.51,ESE,112,3.7,-999.0,75,-99.99,,,0.00,Acu-Link.com,2013-04-19 08:11:00,
2013-04-19 04:27:00,72.3,64.3,29.49,South,180,6.8,-999.0,76,-99.99,,,0.00,Acu-Link.com,2013-04-19 08:27:00,
2013-04-19 04:42:00,72.3,64.3,29.50,SSW,202,3.2,-999.0,76,-99.99,,,0.00,Acu-Link.com,2013-04-19 08:42:00,
2013-04-19 04:57:00,71.1,65.0,29.49,ESE,112,5.3,-999.0,81,-99.99,,,0.00,Acu-Link.com,2013-04-19 08:57:00,
2013-04-19 05:13:00,68.7,65.0,29.49,ESE,112,2.7,-999.0,88,-99.99,,,0.02,Acu-Link.com,2013-04-19 09:13:00,
2013-04-19 05:28:00,67.8,65.4,29.48,NNE,22,2.2,-999.0,92,-99.99,,,0.10,Acu-Link.com,2013-04-19 09:28:00,
2013-04-19 05:43:00,67.1,66.5,29.51,SSW,202,2.7,-999.0,98,-99.99,,,0.64,Acu-Link.com,2013-04-19 09:43:00,
2013-04-19 05:58:00,66.7,66.1,29.51,WSW,247,5.3,-999.0,98,-99.99,,,0.84,Acu-Link.com,2013-04-19 09:58:00,
2013-04-19 06:14:00,66.4,65.8,29.52,SSE,157,1.7,-999.0,98,-99.99,,,0.98,Acu-Link.com,2013-04-19 10:14:00,
2013-04-19 06:29:00,66.0,65.4,29.51,ESE,112,1.7,-999.0,98,-99.99,,,1.20,Acu-Link.com,2013-04-19 10:29:00,
2013-04-19 06:44:00,65.7,65.1,29.51,ESE,112,2.7,-999.0,98,-99.99,,,1.25,Acu-Link.com,2013-04-19 10:44:00,
2013-04-19 07:00:00,65.7,65.1,29.53,SSW,202,4.2,-999.0,98,-99.99,,,1.27,Acu-Link.com,2013-04-19 11:00:00,
2013-04-19 07:15:00,64.9,64.3,29.54,NE,45,1.1,-999.0,98,-99.99,,,1.32,Acu-Link.com,2013-04-19 11:15:00,
2013-04-19 07:30:00,64.6,64.0,29.56,SSW,202,2.2,-999.0,98,-99.99,,,1.38,Acu-Link.com,2013-04-19 11:30:00,
2013-04-19 07:45:00,62.1,59.4,29.58,SSW,202,3.2,-999.0,91,-99.99,,,1.38,Acu-Link.com,2013-04-19 11:45:00,
2013-04-19 08:01:00,60.6,58.3,29.59,West,270,3.7,-999.0,92,-99.99,,,1.39,Acu-Link.com,2013-04-19 12:01:00,
2013-04-19 08:16:00,59.2,57.2,29.61,West,270,1.7,-999.0,93,-99.99,,,1.48,Acu-Link.com,2013-04-19 12:16:00,
2013-04-19 08:31:00,58.5,56.5,29.59,South,180,0.0,-999.0,93,-99.99,,,1.58,Acu-Link.com,2013-04-19 12:31:00,
2013-04-19 08:46:00,57.9,56.2,29.62,South,180,2.2,-999.0,94,-99.99,,,1.58,Acu-Link.com,2013-04-19 12:46:00,
2013-04-19 09:02:00,57.7,57.1,29.62,East,90,0.0,-999.0,98,-99.99,,,1.60,Acu-Link.com,2013-04-19 13:02:00,
2013-04-19 09:17:00,57.7,57.1,29.63,South,180,0.0,-999.0,98,-99.99,,,1.62,Acu-Link.com,2013-04-19 13:17:00,
2013-04-19 09:32:00,57.7,57.1,29.63,SE,135,0.0,-999.0,98,-99.99,,,1.68,Acu-Link.com,2013-04-19 13:32:00,
2013-04-19 09:47:00,57.7,57.1,29.63,SSE,157,0.0,-999.0,98,-99.99,,,1.68,Acu-Link.com,2013-04-19 13:47:00,
2013-04-19 10:03:00,57.0,56.4,29.64,SSW,202,1.1,-999.0,98,-99.99,,,1.70,Acu-Link.com,2013-04-19 14:03:00,
2013-04-19 10:18:00,56.5,54.8,29.65,WSW,247,2.2,-999.0,94,-99.99,,,1.74,Acu-Link.com,2013-04-19 14:18:00,
2013-04-19 10:33:00,56.5,54.2,29.67,NW,315,1.7,-999.0,92,-99.99,,,1.74,Acu-Link.com,2013-04-19 14:33:00,
2013-04-19 10:49:00,55.6,53.0,29.66,NNW,337,1.7,-999.0,91,-99.99,,,1.74,Acu-Link.com,2013-04-19 14:49:00,
2013-04-19 11:04:00,54.5,51.3,29.69,South,180,1.1,-999.0,89,-99.99,,,1.74,Acu-Link.com,2013-04-19 15:04:00,
2013-04-19 11:19:00,54.5,51.6,29.69,East,90,0.0,-999.0,90,-99.99,,,1.74,Acu-Link.com,2013-04-19 15:19:00,
2013-04-19 11:34:00,55.6,51.8,29.72,West,270,4.2,-999.0,87,-99.99,,,1.74,Acu-Link.com,2013-04-19 15:34:00,
2013-04-19 11:50:00,55.9,51.1,29.72,SSW,202,2.2,-999.0,84,-99.99,,,1.74,Acu-Link.com,2013-04-19 15:50:00,
2013-04-19 12:05:00,54.9,49.8,29.72,West,270,1.7,-999.0,83,-99.99,,,1.74,Acu-Link.com,2013-04-19 16:05:00,
2013-04-19 12:20:00,54.3,48.9,29.72,WSW,247,3.7,-999.0,82,-99.99,,,1.74,Acu-Link.com,2013-04-19 16:20:00,
2013-04-19 12:36:00,53.6,47.9,29.73,SW,225,2.2,-999.0,81,-99.99,,,1.74,Acu-Link.com,2013-04-19 16:36:00,
2013-04-19 12:51:00,53.4,46.7,29.73,West,270,3.7,-999.0,78,-99.99,,,1.74,Acu-Link.com,2013-04-19 16:51:00,
2013-04-19 13:06:00,53.4,46.7,29.71,SW,225,4.2,-999.0,78,-99.99,,,1.74,Acu-Link.com,2013-04-19 17:06:00,
2013-04-19 13:22:00,53.8,46.4,29.73,NE,45,2.7,-999.0,76,-99.99,,,1.74,Acu-Link.com,2013-04-19 17:22:00,
2013-04-19 13:37:00,53.2,45.5,29.73,NW,315,3.7,-999.0,75,-99.99,,,1.74,Acu-Link.com,2013-04-19 17:37:00,
2013-04-19 13:52:00,52.9,44.5,29.75,South,180,4.7,-999.0,73,-99.99,,,1.74,Acu-Link.com,2013-04-19 17:52:00,
2013-04-19 14:08:00,52.0,44.3,29.76,West,270,4.7,-999.0,75,-99.99,,,1.74,Acu-Link.com,2013-04-19 18:08:00,
2013-04-19 14:23:00,51.3,43.3,29.76,West,270,5.8,-999.0,74,-99.99,,,1.74,Acu-Link.com,2013-04-19 18:23:00,
2013-04-19 14:38:00,52.5,43.4,29.75,West,270,5.8,-999.0,71,-99.99,,,1.74,Acu-Link.com,2013-04-19 18:38:00,
2013-04-19 14:54:00,55.0,43.9,29.76,SSW,202,7.3,-999.0,66,-99.99,,,1.74,Acu-Link.com,2013-04-19 18:54:00,
2013-04-19 15:09:00,53.4,43.9,29.76,NW,315,3.7,-999.0,70,-99.99,,,1.74,Acu-Link.com,2013-04-19 19:09:00,
2013-04-19 15:24:00,54.0,43.3,29.76,NNE,22,2.7,-999.0,67,-99.99,,,1.74,Acu-Link.com,2013-04-19 19:24:00,
2013-04-19 15:39:00,53.2,40.9,29.77,SW,225,3.7,-999.0,63,-99.99,,,1.74,Acu-Link.com,2013-04-19 19:39:00,
2013-04-19 15:55:00,53.4,41.5,29.75,SW,225,2.2,-999.0,64,-99.99,,,1.74,Acu-Link.com,2013-04-19 19:55:00,
2013-04-19 16:10:00,54.0,41.3,29.76,NNE,22,1.7,-999.0,62,-99.99,,,1.74,Acu-Link.com,2013-04-19 20:10:00,
2013-04-19 16:25:00,55.2,43.2,29.75,East,90,2.2,-999.0,64,-99.99,,,1.74,Acu-Link.com,2013-04-19 20:25:00,
2013-04-19 16:40:00,54.7,41.5,29.74,SSE,157,5.8,-999.0,61,-99.99,,,1.74,Acu-Link.com,2013-04-19 20:40:00,
2013-04-19 16:56:00,55.6,40.2,29.75,WNW,292,3.7,-999.0,56,-99.99,,,1.74,Acu-Link.com,2013-04-19 20:56:00,
2013-04-19 17:11:00,55.4,40.0,29.76,SW,225,4.2,-999.0,56,-99.99,,,1.74,Acu-Link.com,2013-04-19 21:11:00,
2013-04-19 17:26:00,56.3,42.2,29.75,WSW,247,2.7,-999.0,59,-99.99,,,1.74,Acu-Link.com,2013-04-19 21:26:00,
2013-04-19 17:41:00,55.4,40.9,29.75,West,270,2.2,-999.0,58,-99.99,,,1.74,Acu-Link.com,2013-04-19 21:41:00,
2013-04-19 17:57:00,55.8,40.8,29.75,East,90,4.2,-999.0,57,-99.99,,,1.74,Acu-Link.com,2013-04-19 21:57:00,
2013-04-19 18:12:00,55.4,40.9,29.76,WNW,292,2.7,-999.0,58,-99.99,,,1.74,Acu-Link.com,2013-04-19 22:12:00,
2013-04-19 18:27:00,55.8,41.2,29.76,ESE,112,4.2,-999.0,58,-99.99,,,1.74,Acu-Link.com,2013-04-19 22:27:00,
2013-04-19 18:42:00,55.0,38.7,29.77,ESE,112,3.2,-999.0,54,-99.99,,,1.74,Acu-Link.com,2013-04-19 22:42:00,
2013-04-19 18:57:00,54.0,38.2,29.78,WSW,247,2.7,-999.0,55,-99.99,,,1.74,Acu-Link.com,2013-04-19 22:57:00,
2013-04-19 19:13:00,53.1,38.3,29.78,NW,315,2.7,-999.0,57,-99.99,,,1.74,Acu-Link.com,2013-04-19 23:13:00,
2013-04-19 19:28:00,52.7,38.3,29.79,West,270,2.2,-999.0,58,-99.99,,,1.74,Acu-Link.com,2013-04-19 23:28:00,
2013-04-19 19:43:00,52.3,38.8,29.80,East,90,0.0,-999.0,60,-99.99,,,1.74,Acu-Link.com,2013-04-19 23:43:00,
2013-04-19 19:58:00,52.2,39.2,29.80,SW,225,0.0,-999.0,61,-99.99,,,1.74,Acu-Link.com,2013-04-19 23:58:00,
2013-04-19 20:13:00,51.4,38.8,29.81,NNE,22,2.2,-999.0,62,-99.99,,,1.74,Acu-Link.com,2013-04-20 00:13:00,
2013-04-19 20:29:00,50.5,37.6,29.81,NNW,337,2.7,-999.0,61,-99.99,,,1.74,Acu-Link.com,2013-04-20 00:29:00,
2013-04-19 20:44:00,49.6,37.1,29.83,SW,225,0.0,-999.0,62,-99.99,,,1.74,Acu-Link.com,2013-04-20 00:44:00,
2013-04-19 20:59:00,48.6,37.0,29.84,SSW,202,0.0,-999.0,64,-99.99,,,1.74,Acu-Link.com,2013-04-20 00:59:00,
2013-04-19 21:14:00,47.8,36.2,29.85,NW,315,1.1,-999.0,64,-99.99,,,1.74,Acu-Link.com,2013-04-20 01:14:00,
2013-04-19 21:29:00,47.3,36.1,29.86,South,180,0.0,-999.0,65,-99.99,,,1.74,Acu-Link.com,2013-04-20 01:29:00,
2013-04-19 21:44:00,46.8,36.8,29.87,South,180,0.0,-999.0,68,-99.99,,,1.74,Acu-Link.com,2013-04-20 01:44:00,
2013-04-19 22:00:00,45.9,36.7,29.88,West,270,0.0,-999.0,70,-99.99,,,1.74,Acu-Link.com,2013-04-20 02:00:00,
2013-04-19 22:15:00,44.8,37.0,29.90,NE,45,0.0,-999.0,74,-99.99,,,1.74,Acu-Link.com,2013-04-20 02:15:00,
2013-04-19 22:30:00,43.9,36.8,29.91,NNE,22,0.0,-999.0,76,-99.99,,,1.74,Acu-Link.com,2013-04-20 02:30:00,
2013-04-19 22:45:00,43.2,36.8,29.92,West,270,0.0,-999.0,78,-99.99,,,1.74,Acu-Link.com,2013-04-20 02:45:00,
2013-04-19 23:00:00,43.5,34.7,29.93,SSE,157,0.0,-999.0,71,-99.99,,,1.74,Acu-Link.com,2013-04-20 03:00:00,
2013-04-19 23:15:00,44.8,34.1,29.93,West,270,2.7,-999.0,66,-99.99,,,1.74,Acu-Link.com,2013-04-20 03:15:00,
2013-04-19 23:30:00,44.4,34.9,29.94,SW,225,0.0,-999.0,69,-99.99,,,1.74,Acu-Link.com,2013-04-20 03:30:00,
2013-04-19 23:46:00,43.7,33.8,29.95,North,0,5.8,-999.0,68,-99.99,,,1.74,Acu-Link.com,2013-04-20 03:46:00,